Time;durP1;ratioP1;P1;durP2;ratioP2;P2;SDS_P1;SDS_P2;PMS_P1;PMS_P2;Temp;Humidity;BMP_temperature;BMP_pressure;BME280_temperature;BME280_humidity;BME280_pressure;Samples;Min_cycle;Max_cycle;Signal;HPM_P1;HPM_P2
2022/09/05 00:00:52;;;;;;;4.78;4.20;;;24.10;99.90;;;;;;4165689;28;20193;-74
2022/09/05 00:03:06;;;;;;;4.43;4.03;;;24.20;99.90;;;;;;4170061;28;20613;-74
2022/09/05 00:05:25;;;;;;;4.00;3.60;;;24.10;99.90;;;;;;4167070;28;20212;-74
2022/09/05 00:07:37;;;;;;;4.07;3.67;;;24.10;99.90;;;;;;4160749;28;20216;-74
2022/09/05 00:10:04;;;;;;;5.25;4.00;;;24.10;99.90;;;;;;4167703;28;20262;-74
2022/09/05 00:12:10;;;;;;;4.00;3.60;;;24.20;99.90;;;;;;4164918;28;20221;-74
2022/09/05 00:14:37;;;;;;;4.47;4.03;;;24.10;99.90;;;;;;4163376;28;20625;-74
2022/09/05 00:17:00;;;;;;;4.15;3.75;;;24.10;99.90;;;;;;4171111;28;20208;-74
2022/09/05 00:19:11;;;;;;;4.22;3.45;;;24.10;99.90;;;;;;4152111;28;20290;-74
2022/09/05 00:21:29;;;;;;;4.50;3.67;;;24.10;99.90;;;;;;4163534;28;20271;-74
2022/09/05 00:23:40;;;;;;;4.72;3.55;;;24.10;99.90;;;;;;4168490;28;20216;-74
2022/09/05 00:25:59;;;;;;;3.80;3.40;;;24.10;99.90;;;;;;4166900;28;20653;-74
2022/09/05 00:28:09;;;;;;;3.90;3.47;;;24.10;99.90;;;;;;4163874;28;20244;-74
2022/09/05 00:30:16;;;;;;;4.43;3.45;;;24.10;99.90;;;;;;4164137;28;20219;-74
2022/09/05 00:32:26;;;;;;;3.30;3.00;;;24.10;99.90;;;;;;4167844;28;20271;-74
2022/09/05 00:34:50;;;;;;;3.70;3.30;;;24.10;99.90;;;;;;4159415;28;20212;-74
2022/09/05 00:36:54;;;;;;;4.40;3.45;;;24.10;99.90;;;;;;4157866;28;20266;-74
2022/09/05 00:39:01;;;;;;;4.80;4.00;;;24.10;99.90;;;;;;4164904;28;20204;-74
2022/09/05 00:41:08;;;;;;;4.75;3.90;;;24.10;99.90;;;;;;4166096;28;20220;-74
2022/09/05 00:43:16;;;;;;;3.60;3.30;;;24.10;99.90;;;;;;4164405;28;20661;-74
2022/09/05 00:45:27;;;;;;;4.20;3.63;;;24.10;99.90;;;;;;4165763;28;20212;-74
2022/09/05 00:47:37;;;;;;;4.72;3.60;;;24.10;99.90;;;;;;4166426;28;20216;-74
2022/09/05 00:49:45;;;;;;;4.05;3.40;;;24.10;99.90;;;;;;4163652;28;20220;-74
2022/09/05 00:51:53;;;;;;;3.35;3.05;;;24.10;99.90;;;;;;4165277;28;20282;-74
2022/09/05 00:54:12;;;;;;;4.90;3.70;;;24.10;99.90;;;;;;4164876;28;20260;-74
2022/09/05 00:56:34;;;;;;;5.15;3.63;;;24.10;99.90;;;;;;4165572;28;20240;-74
2022/09/05 00:58:59;;;;;;;4.40;3.40;;;24.10;99.90;;;;;;4161930;28;20259;-74
2022/09/05 01:01:07;;;;;;;3.75;3.40;;;24.10;99.90;;;;;;4155277;28;20212;-74
2022/09/05 01:03:29;;;;;;;3.53;3.22;;;24.10;99.90;;;;;;4165224;28;20274;-74
2022/09/05 01:05:45;;;;;;;4.10;3.50;;;24.10;99.90;;;;;;4166651;28;20216;-74
2022/09/05 01:08:03;;;;;;;5.35;3.78;;;24.10;99.90;;;;;;4164128;28;20554;-74
2022/09/05 01:10:19;;;;;;;4.47;3.63;;;24.10;99.90;;;;;;4162448;28;20239;-74
2022/09/05 01:12:42;;;;;;;4.35;3.60;;;24.10;99.90;;;;;;4163621;28;20262;-74
2022/09/05 01:14:56;;;;;;;4.32;3.50;;;24.10;99.90;;;;;;4164127;28;20686;-73
2022/09/05 01:17:25;;;;;;;4.57;3.80;;;24.10;99.90;;;;;;4164156;28;20648;-74
2022/09/05 01:19:38;;;;;;;5.22;3.85;;;24.10;99.90;;;;;;4156397;28;20955;-74
2022/09/05 01:22:16;;;;;;;4.07;3.53;;;24.10;99.90;;;;;;4165689;28;20212;-74
2022/09/05 01:24:47;;;;;;;6.45;4.38;;;24.10;99.90;;;;;;4162681;28;20565;-74
2022/09/05 01:27:32;;;;;;;5.28;3.65;;;24.10;99.90;;;;;;4162529;28;20261;-74
2022/09/05 01:29:44;;;;;;;4.25;3.85;;;24.10;99.90;;;;;;4163420;28;20720;-74
2022/09/05 01:32:07;;;;;;;3.83;3.30;;;24.10;99.90;;;;;;4162007;28;20274;-74
2022/09/05 01:34:18;;;;;;;4.72;4.13;;;24.00;99.90;;;;;;4160362;28;20316;-74
2022/09/05 01:36:34;;;;;;;4.03;3.33;;;24.10;99.90;;;;;;4163365;28;20240;-74
2022/09/05 01:38:45;;;;;;;3.78;3.40;;;24.00;99.90;;;;;;4158978;28;20212;-74
2022/09/05 01:40:55;;;;;;;4.10;3.30;;;24.00;99.90;;;;;;4164690;28;20270;-74
2022/09/05 01:43:15;;;;;;;5.13;3.90;;;24.00;99.90;;;;;;4162078;28;20211;-74
2022/09/05 01:45:24;;;;;;;5.20;4.35;;;24.00;99.90;;;;;;4163683;28;20266;-74
2022/09/05 01:47:41;;;;;;;4.32;3.45;;;24.10;99.90;;;;;;4162984;28;20273;-74
2022/09/05 01:49:55;;;;;;;3.70;3.30;;;24.00;99.90;;;;;;4160565;28;20220;-74
2022/09/05 01:52:16;;;;;;;3.88;3.53;;;24.10;99.90;;;;;;4163509;28;20266;-74
2022/09/05 01:54:24;;;;;;;3.58;3.28;;;24.00;99.90;;;;;;4161966;28;20216;-74
2022/09/05 01:56:45;;;;;;;4.05;3.08;;;24.10;99.90;;;;;;4162766;28;20700;-74
2022/09/05 01:58:57;;;;;;;4.18;3.70;;;24.10;99.90;;;;;;4162569;28;20212;-74
2022/09/05 02:01:09;;;;;;;3.45;3.00;;;24.00;99.90;;;;;;4154595;28;20258;-74
2022/09/05 02:03:20;;;;;;;4.25;3.85;;;24.00;99.90;;;;;;4162517;28;20246;-74
2022/09/05 02:05:36;;;;;;;3.88;3.47;;;24.00;99.90;;;;;;4162927;28;20224;-74
2022/09/05 02:07:58;;;;;;;4.20;3.42;;;24.00;99.90;;;;;;4161093;28;20664;-73
2022/09/05 02:10:26;;;;;;;4.75;3.35;;;24.00;99.90;;;;;;4161678;28;20731;-73
2022/09/05 02:12:34;;;;;;;3.95;3.40;;;24.00;99.90;;;;;;4162447;28;20274;-73
2022/09/05 02:14:43;;;;;;;3.60;3.25;;;24.00;99.90;;;;;;4160961;28;20734;-73
2022/09/05 02:16:48;;;;;;;3.90;3.42;;;24.00;99.90;;;;;;4159481;28;20232;-73
2022/09/05 02:18:58;;;;;;;3.95;3.55;;;24.00;99.90;;;;;;4158948;28;20746;-73
2022/09/05 02:21:02;;;;;;;3.90;3.47;;;24.00;99.90;;;;;;4161686;28;20287;-73
2022/09/05 02:23:10;;;;;;;4.03;3.22;;;24.00;99.90;;;;;;4161118;28;20216;-73
2022/09/05 02:25:18;;;;;;;4.25;3.30;;;24.00;99.90;;;;;;4154439;28;20223;-73
2022/09/05 02:27:28;;;;;;;3.40;3.10;;;24.00;99.90;;;;;;4163709;28;20211;-73
2022/09/05 02:29:37;;;;;;;3.83;3.30;;;24.00;99.90;;;;;;4128091;28;20332;-73
2022/09/05 02:31:46;;;;;;;3.13;2.83;;;24.00;99.90;;;;;;4130547;28;20217;-73
2022/09/05 02:33:55;;;;;;;4.63;3.50;;;24.00;99.90;;;;;;4129733;28;20287;-73
2022/09/05 02:36:06;;;;;;;3.30;2.75;;;24.00;99.90;;;;;;4127849;28;20367;-73
2022/09/05 02:38:18;;;;;;;3.80;3.20;;;24.00;99.90;;;;;;4128176;28;20262;-73
2022/09/05 02:40:26;;;;;;;3.58;3.17;;;24.00;99.90;;;;;;4129136;28;20276;-74
2022/09/05 02:42:34;;;;;;;4.22;3.10;;;24.00;99.90;;;;;;4128888;28;20214;-73
2022/09/05 02:44:41;;;;;;;3.75;3.35;;;24.00;99.90;;;;;;4128499;28;20631;-73
2022/09/05 02:46:52;;;;;;;3.38;3.08;;;24.00;99.90;;;;;;4126807;28;20217;-73
2022/09/05 02:49:02;;;;;;;3.53;3.20;;;24.00;99.90;;;;;;4127803;28;20226;-74
2022/09/05 02:51:16;;;;;;;4.35;3.35;;;23.90;99.90;;;;;;4127651;28;20221;-73
2022/09/05 02:53:21;;;;;;;3.60;3.20;;;24.00;99.90;;;;;;4127991;28;20225;-74
2022/09/05 02:55:32;;;;;;;3.20;2.85;;;24.00;99.90;;;;;;4128608;28;20284;-74
2022/09/05 02:57:43;;;;;;;3.65;3.13;;;24.00;99.90;;;;;;4128529;28;20271;-73
2022/09/05 02:59:59;;;;;;;3.95;3.00;;;24.00;99.90;;;;;;4129855;28;20217;-73
2022/09/05 03:02:11;;;;;;;3.38;3.08;;;24.00;99.90;;;;;;4128634;28;20213;-73
2022/09/05 03:04:28;;;;;;;4.03;3.10;;;24.00;99.90;;;;;;4127493;28;20279;-73
2022/09/05 03:06:35;;;;;;;3.53;2.80;;;23.90;99.90;;;;;;4130762;28;20209;-73
2022/09/05 03:08:58;;;;;;;3.33;2.90;;;23.90;99.90;;;;;;4126799;28;20275;-73
2022/09/05 03:11:51;;;;;;;3.78;3.13;;;23.90;99.90;;;;;;4129275;28;20217;-74
2022/09/05 03:14:38;;;;;;;3.00;2.65;;;23.90;99.90;;;;;;4130319;28;20276;-74
2022/09/05 03:17:20;;;;;;;4.85;3.03;;;24.00;99.90;;;;;;4114178;28;20246;-74
2022/09/05 03:19:59;;;;;;;3.28;2.97;;;23.90;99.90;;;;;;4131397;28;20226;-74
2022/09/05 03:22:35;;;;;;;3.17;2.88;;;23.90;99.90;;;;;;4132789;28;20224;-74
2022/09/05 03:25:13;;;;;;;3.65;2.80;;;23.90;99.90;;;;;;4123361;28;20267;-74
2022/09/05 03:27:52;;;;;;;3.45;3.10;;;23.90;99.90;;;;;;4130495;28;20272;-74
2022/09/05 03:30:11;;;;;;;2.88;2.50;;;23.90;99.90;;;;;;4163977;28;20270;-74
2022/09/05 03:32:57;;;;;;;3.72;3.05;;;23.90;99.90;;;;;;4162677;28;20282;-74
2022/09/05 03:35:53;;;;;;;3.47;2.80;;;23.90;99.90;;;;;;4145441;28;20219;-74
2022/09/05 03:38:18;;;;;;;2.92;2.63;;;23.90;99.90;;;;;;4163009;28;20240;-73
2022/09/05 03:40:39;;;;;;;3.08;2.78;;;23.90;99.90;;;;;;4163440;28;20270;-73
2022/09/05 03:43:06;;;;;;;3.67;3.03;;;23.90;99.90;;;;;;4163592;28;20669;-73
2022/09/05 03:45:26;;;;;;;4.50;3.22;;;23.90;99.90;;;;;;4161363;28;20208;-74
2022/09/05 03:47:58;;;;;;;3.90;3.08;;;23.90;99.90;;;;;;4162632;28;20251;-73
2022/09/05 03:50:21;;;;;;;3.85;2.97;;;23.90;99.90;;;;;;4163670;28;20224;-73
2022/09/05 03:52:38;;;;;;;3.60;2.95;;;23.90;99.90;;;;;;4163883;28;20239;-73
2022/09/05 03:54:56;;;;;;;2.80;2.60;;;23.90;99.90;;;;;;4161872;28;20223;-73
2022/09/05 03:57:13;;;;;;;2.97;2.67;;;23.90;99.90;;;;;;4163426;28;20286;-73
2022/09/05 03:59:45;;;;;;;3.10;2.80;;;23.90;99.90;;;;;;4162629;28;20228;-73
2022/09/05 04:01:51;;;;;;;3.22;2.80;;;23.90;99.90;;;;;;4164495;28;20270;-73
2022/09/05 04:04:00;;;;;;;3.80;2.78;;;23.90;99.90;;;;;;4163595;28;20282;-73
2022/09/05 04:06:12;;;;;;;2.55;2.35;;;23.90;99.90;;;;;;4163240;28;20219;-73
2022/09/05 04:08:22;;;;;;;3.47;3.13;;;23.90;99.90;;;;;;4166722;28;20216;-73
2022/09/05 04:10:31;;;;;;;2.70;2.50;;;23.80;99.90;;;;;;4163092;28;20212;-73
2022/09/05 04:12:38;;;;;;;3.50;2.40;;;23.90;99.90;;;;;;4158424;28;20220;-73
2022/09/05 04:14:46;;;;;;;3.25;2.90;;;23.90;99.90;;;;;;4163050;28;20718;-73
2022/09/05 04:16:52;;;;;;;3.13;2.83;;;23.90;99.90;;;;;;4163569;28;20691;-73
2022/09/05 04:19:08;;;;;;;3.63;3.08;;;23.80;99.90;;;;;;4163615;28;20217;-73
2022/09/05 04:21:15;;;;;;;3.33;2.70;;;23.90;99.90;;;;;;4161606;28;20212;-73
2022/09/05 04:23:29;;;;;;;2.83;2.53;;;23.80;99.90;;;;;;4163926;28;20277;-73
2022/09/05 04:25:45;;;;;;;3.17;2.72;;;23.90;99.90;;;;;;4164532;28;20216;-73
2022/09/05 04:27:53;;;;;;;3.35;2.72;;;23.90;99.90;;;;;;4162696;28;20244;-74
2022/09/05 04:30:00;;;;;;;4.18;2.90;;;23.80;99.90;;;;;;4163994;28;20224;-73
2022/09/05 04:32:16;;;;;;;3.22;2.83;;;23.90;99.90;;;;;;4162243;28;20228;-73
2022/09/05 04:34:49;;;;;;;3.67;2.97;;;23.90;99.90;;;;;;4162365;28;20718;-73
2022/09/05 04:37:02;;;;;;;3.03;2.75;;;23.90;99.90;;;;;;4163410;28;20216;-73
2022/09/05 04:39:24;;;;;;;3.78;2.78;;;23.90;99.90;;;;;;4162865;28;20266;-73
2022/09/05 04:41:28;;;;;;;2.95;2.67;;;23.90;99.90;;;;;;4162354;28;20283;-73
2022/09/05 04:43:36;;;;;;;3.05;2.75;;;23.80;99.90;;;;;;4165115;28;20983;-73
2022/09/05 04:45:43;;;;;;;3.55;2.83;;;23.90;99.90;;;;;;4162658;28;20219;-73
2022/09/05 04:47:52;;;;;;;2.92;2.47;;;23.90;99.90;;;;;;4162667;28;20261;-73
2022/09/05 04:49:58;;;;;;;4.50;3.05;;;23.80;99.90;;;;;;4163665;28;20216;-73
2022/09/05 04:52:37;;;;;;;3.80;2.30;;;23.90;99.90;;;;;;4161900;28;20216;-73
2022/09/05 04:54:45;;;;;;;3.08;2.78;;;23.80;99.90;;;;;;4161965;28;20267;-73
2022/09/05 04:56:52;;;;;;;2.60;2.10;;;23.80;99.90;;;;;;4162657;28;21629;-73
2022/09/05 04:58:58;;;;;;;3.30;2.67;;;23.90;99.90;;;;;;4163039;28;20213;-73
2022/09/05 05:01:04;;;;;;;2.90;2.60;;;23.80;99.90;;;;;;4162877;28;20279;-73
2022/09/05 05:03:12;;;;;;;3.25;2.42;;;23.80;99.90;;;;;;4161194;28;20220;-73
2022/09/05 05:05:20;;;;;;;2.95;2.58;;;23.90;99.90;;;;;;4162080;28;20228;-73
2022/09/05 05:07:30;;;;;;;2.90;2.58;;;23.90;99.90;;;;;;4161460;28;20216;-73
2022/09/05 05:09:37;;;;;;;3.40;2.92;;;23.90;99.90;;;;;;4161107;28;20577;-73
2022/09/05 05:11:48;;;;;;;3.17;2.53;;;23.80;99.90;;;;;;4161921;28;20224;-73
2022/09/05 05:13:55;;;;;;;3.42;2.55;;;23.80;99.90;;;;;;4163345;28;20217;-73
2022/09/05 05:16:03;;;;;;;2.88;2.67;;;23.80;99.90;;;;;;4162894;28;20220;-74
2022/09/05 05:18:16;;;;;;;3.90;2.40;;;23.90;99.90;;;;;;4160524;28;20639;-74
2022/09/05 05:20:24;;;;;;;2.95;2.40;;;23.90;99.90;;;;;;4164103;28;20216;-73
2022/09/05 05:22:28;;;;;;;3.22;2.55;;;23.80;99.90;;;;;;4162847;28;20660;-73
2022/09/05 05:24:34;;;;;;;2.70;2.50;;;23.80;99.90;;;;;;4159941;28;20259;-73
2022/09/05 05:26:45;;;;;;;2.70;2.45;;;23.80;99.90;;;;;;4162563;28;20554;-73
2022/09/05 05:28:54;;;;;;;2.80;2.40;;;23.80;99.90;;;;;;4159060;28;20232;-73
2022/09/05 05:31:09;;;;;;;3.03;2.60;;;23.90;99.90;;;;;;4160757;28;20612;-73
2022/09/05 05:33:24;;;;;;;3.70;2.63;;;23.80;99.90;;;;;;4161144;28;20977;-73
2022/09/05 05:35:30;;;;;;;2.60;2.40;;;23.80;99.90;;;;;;4161967;28;20715;-73
2022/09/05 05:37:40;;;;;;;2.78;2.40;;;23.90;99.90;;;;;;4160527;28;20236;-74
2022/09/05 05:39:47;;;;;;;3.03;2.33;;;23.90;99.90;;;;;;4162040;28;20212;-73
2022/09/05 05:41:53;;;;;;;3.00;2.60;;;23.90;99.90;;;;;;4160169;28;20212;-73
2022/09/05 05:43:56;;;;;;;2.88;2.60;;;23.90;99.90;;;;;;4161700;28;20216;-73
2022/09/05 05:46:00;;;;;;;3.72;2.55;;;23.90;99.90;;;;;;4162423;28;20228;-73
2022/09/05 05:48:05;;;;;;;3.70;2.65;;;23.90;99.90;;;;;;4161921;28;20306;-74
2022/09/05 05:50:20;;;;;;;2.90;2.60;;;23.90;99.90;;;;;;4161802;28;20224;-73
2022/09/05 05:53:01;;;;;;;2.80;2.50;;;23.90;99.90;;;;;;4159894;28;20274;-73
2022/09/05 05:55:11;;;;;;;2.40;2.20;;;23.90;99.90;;;;;;4160938;28;20250;-73
2022/09/05 05:57:52;;;;;;;2.58;2.35;;;23.90;99.90;;;;;;4159666;28;20661;-74
2022/09/05 06:00:05;;;;;;;2.83;2.53;;;23.80;99.90;;;;;;4151772;28;20208;-73
2022/09/05 06:02:42;;;;;;;3.22;2.67;;;23.90;99.90;;;;;;4151199;28;20219;-73
2022/09/05 06:05:30;;;;;;;2.95;2.40;;;23.90;99.90;;;;;;4160582;28;20212;-73
2022/09/05 06:07:42;;;;;;;2.95;2.30;;;23.90;99.90;;;;;;4161596;28;20266;-73
2022/09/05 06:10:02;;;;;;;2.55;2.35;;;23.90;99.90;;;;;;4161177;28;20264;-74
2022/09/05 06:12:37;;;;;;;3.08;2.50;;;23.90;99.90;;;;;;4162093;28;20220;-73
2022/09/05 06:15:15;;;;;;;2.55;2.10;;;23.90;99.90;;;;;;4160178;28;20262;-73
2022/09/05 06:17:34;;;;;;;4.07;2.53;;;23.90;99.90;;;;;;4159254;28;20668;-73
2022/09/05 06:20:19;;;;;;;3.08;2.40;;;23.90;99.90;;;;;;4162545;28;21156;-73
2022/09/05 06:22:55;;;;;;;2.38;2.17;;;23.90;99.90;;;;;;4161247;28;20270;-74
2022/09/05 06:25:36;;;;;;;3.63;2.63;;;23.90;99.90;;;;;;4161596;28;20629;-74
2022/09/05 06:27:47;;;;;;;2.40;2.20;;;23.90;99.90;;;;;;4159987;28;20216;-74
2022/09/05 06:29:58;;;;;;;4.03;2.40;;;23.90;99.90;;;;;;4160404;28;20216;-74
2022/09/05 06:32:09;;;;;;;2.53;2.33;;;23.90;99.90;;;;;;4162301;28;20254;-74
2022/09/05 06:34:32;;;;;;;2.47;2.28;;;23.90;99.90;;;;;;4159229;28;20629;-74
2022/09/05 06:36:50;;;;;;;2.15;1.90;;;23.90;99.90;;;;;;4159910;28;20220;-74
2022/09/05 06:39:05;;;;;;;2.35;2.15;;;23.90;99.90;;;;;;4160173;28;20235;-74
2022/09/05 06:41:21;;;;;;;2.30;2.10;;;23.90;99.90;;;;;;4160717;28;20623;-74
2022/09/05 06:43:54;;;;;;;2.50;2.30;;;23.90;99.90;;;;;;4159112;28;20263;-74
2022/09/05 06:46:17;;;;;;;2.55;2.35;;;23.90;99.90;;;;;;4164121;28;20275;-74
2022/09/05 06:48:23;;;;;;;3.08;1.95;;;23.90;99.90;;;;;;4163491;28;20220;-74
2022/09/05 06:50:34;;;;;;;3.97;2.17;;;23.90;99.90;;;;;;4161542;28;20278;-74
2022/09/05 06:53:30;;;;;;;5.38;2.10;;;23.80;99.90;;;;;;4164731;28;20212;-75
2022/09/05 06:55:46;;;;;;;4.82;2.38;;;23.80;99.90;;;;;;4161064;28;20963;-77
2022/09/05 06:58:31;;;;;;;4.00;2.15;;;23.70;99.90;;;;;;4163407;28;20734;-77
2022/09/05 07:00:43;;;;;;;3.42;2.20;;;23.60;99.90;;;;;;4160650;28;20243;-79
2022/09/05 07:03:01;;;;;;;4.55;2.22;;;23.60;99.90;;;;;;4163337;28;20667;-79
2022/09/05 07:05:17;;;;;;;6.45;2.40;;;23.50;99.90;;;;;;4164512;28;20327;-78
2022/09/05 07:07:26;;;;;;;7.80;2.38;;;23.50;99.90;;;;;;4162899;28;20219;-77
2022/09/05 07:09:34;;;;;;;5.60;2.28;;;23.40;99.90;;;;;;4161131;28;20629;-76
2022/09/05 07:11:44;;;;;;;3.50;2.38;;;23.40;99.90;;;;;;4161621;28;20212;-77
2022/09/05 07:14:02;;;;;;;4.63;2.45;;;23.40;99.90;;;;;;4162530;28;20220;-74
2022/09/05 07:16:15;;;;;;;7.22;2.30;;;23.40;99.90;;;;;;4164016;28;20219;-79
2022/09/05 07:18:26;;;;;;;5.30;2.70;;;23.40;99.90;;;;;;4159932;28;20236;-77
2022/09/05 07:20:34;;;;;;;7.75;2.50;;;23.50;99.90;;;;;;4159972;28;20224;-76
2022/09/05 07:22:49;;;;;;;4.35;2.47;;;23.50;99.90;;;;;;4163815;28;20534;-78
2022/09/05 07:25:03;;;;;;;4.32;2.20;;;23.60;99.90;;;;;;4154375;28;20271;-76
2022/09/05 07:27:08;;;;;;;3.10;1.92;;;23.60;99.90;;;;;;4159792;28;20987;-77
2022/09/05 07:29:17;;;;;;;4.15;2.08;;;23.70;99.90;;;;;;4160621;28;20290;-80
2022/09/05 07:31:23;;;;;;;3.08;2.20;;;23.70;99.90;;;;;;4161146;28;20270;-77
2022/09/05 07:33:30;;;;;;;4.85;2.45;;;23.70;99.90;;;;;;4161041;28;20212;-75
2022/09/05 07:35:35;;;;;;;3.45;2.78;;;23.70;99.90;;;;;;4165064;28;20228;-76
2022/09/05 07:37:41;;;;;;;4.55;3.30;;;23.70;99.90;;;;;;4162247;28;20217;-77
2022/09/05 07:39:50;;;;;;;4.00;2.85;;;23.80;99.90;;;;;;4162385;28;20766;-77
2022/09/05 07:41:57;;;;;;;3.63;2.80;;;23.80;99.90;;;;;;4156612;28;20266;-79
2022/09/05 07:44:03;;;;;;;4.70;2.30;;;23.80;99.90;;;;;;4157395;28;20622;-79
2022/09/05 07:46:11;;;;;;;9.05;2.53;;;23.80;99.90;;;;;;4161099;28;20208;-79
2022/09/05 07:48:20;;;;;;;3.97;2.22;;;23.90;99.90;;;;;;4161408;28;20305;-77
2022/09/05 07:50:27;;;;;;;4.45;2.15;;;23.90;99.90;;;;;;4154099;28;20256;-75
2022/09/05 07:52:33;;;;;;;4.07;2.33;;;23.90;99.90;;;;;;4158849;28;20306;-78
2022/09/05 07:54:40;;;;;;;5.13;2.35;;;24.00;99.90;;;;;;4160051;28;20216;-78
2022/09/05 07:56:45;;;;;;;8.45;2.63;;;23.90;99.90;;;;;;4161703;28;20207;-77
2022/09/05 07:58:50;;;;;;;5.57;2.40;;;23.90;99.90;;;;;;4149797;28;20286;-76
2022/09/05 08:00:56;;;;;;;4.50;2.22;;;23.90;99.90;;;;;;4160846;28;20224;-77
2022/09/05 08:03:07;;;;;;;4.28;2.83;;;23.90;99.90;;;;;;4158230;28;20253;-78
2022/09/05 08:05:13;;;;;;;4.15;2.67;;;24.00;99.90;;;;;;4158105;28;20220;-77
2022/09/05 08:07:21;;;;;;;8.05;2.95;;;24.00;99.90;;;;;;4164214;28;20220;-76
2022/09/05 08:09:27;;;;;;;8.57;2.70;;;24.00;99.90;;;;;;4160295;28;20281;-79
2022/09/05 08:11:32;;;;;;;2.97;2.33;;;24.00;99.90;;;;;;4157828;28;20220;-80
2022/09/05 08:13:50;;;;;;;3.50;2.45;;;24.10;99.90;;;;;;4162600;28;20327;-79
2022/09/05 08:15:58;;;;;;;3.75;2.17;;;24.10;99.90;;;;;;4167081;28;20286;-80
2022/09/05 08:18:10;;;;;;;5.53;2.67;;;24.10;99.90;;;;;;4163460;28;20208;-78
2022/09/05 08:20:27;;;;;;;3.40;2.33;;;24.10;99.90;;;;;;4158942;28;20232;-78
2022/09/05 08:22:43;;;;;;;7.45;2.55;;;24.20;99.90;;;;;;4153475;28;20224;-79
2022/09/05 08:24:54;;;;;;;5.05;2.40;;;24.20;99.90;;;;;;4162650;28;20217;-78
2022/09/05 08:27:06;;;;;;;5.65;2.40;;;24.20;99.90;;;;;;4163215;28;20212;-78
2022/09/05 08:30:09;;;;;;;9.32;2.47;;;24.30;99.90;;;;;;4152144;28;20703;-77
2022/09/05 08:32:13;;;;;;;4.40;2.40;;;24.30;99.90;;;;;;4148958;28;20220;-77
2022/09/05 08:34:20;;;;;;;5.15;2.67;;;24.30;99.90;;;;;;4162062;28;20270;-80
2022/09/05 08:38:49;;;;;;;3.85;2.10;;;24.40;99.90;;;;;;4141469;28;20215;-76
2022/09/05 08:41:02;;;;;;;5.32;2.40;;;24.40;99.90;;;;;;4159360;28;20597;-76
2022/09/05 08:43:13;;;;;;;7.13;2.72;;;24.40;99.90;;;;;;4158202;28;20760;-78
2022/09/05 08:45:21;;;;;;;4.47;2.28;;;24.50;99.90;;;;;;4161121;28;20211;-76
2022/09/05 08:47:28;;;;;;;4.72;2.53;;;24.50;99.90;;;;;;4151095;28;20262;-78
2022/09/05 08:49:49;;;;;;;3.53;2.25;;;24.60;99.90;;;;;;4158224;28;20261;-78
2022/09/05 08:51:54;;;;;;;3.88;2.28;;;24.60;99.90;;;;;;4157579;28;20244;-77
2022/09/05 08:54:16;;;;;;;7.70;2.72;;;24.60;99.90;;;;;;4160467;28;20288;-76
2022/09/05 08:56:22;;;;;;;3.25;1.90;;;24.60;99.90;;;;;;4162988;28;20223;-80
2022/09/05 08:58:35;;;;;;;7.10;2.40;;;24.60;99.90;;;;;;4156423;28;20228;-76
2022/09/05 09:00:43;;;;;;;7.93;2.58;;;24.70;99.90;;;;;;4162292;28;20236;-75
2022/09/05 09:03:04;;;;;;;4.75;2.33;;;24.70;99.90;;;;;;4157974;28;20215;-76
2022/09/05 09:05:19;;;;;;;4.22;2.40;;;24.70;99.90;;;;;;4164894;28;20216;-76
2022/09/05 09:07:32;;;;;;;5.20;2.75;;;24.70;99.90;;;;;;4158644;28;20621;-78
2022/09/05 09:09:44;;;;;;;6.70;2.67;;;24.80;99.90;;;;;;4165337;28;20801;-78
2022/09/05 09:11:53;;;;;;;3.58;2.05;;;24.70;99.90;;;;;;4165569;28;20215;-78
2022/09/05 09:14:20;;;;;;;4.97;2.67;;;24.80;99.90;;;;;;4162197;28;20616;-78
2022/09/05 09:16:32;;;;;;;5.60;2.83;;;24.70;99.90;;;;;;4162176;28;20661;-76
2022/09/05 09:18:59;;;;;;;7.88;3.22;;;24.80;99.90;;;;;;4162451;28;20265;-78
2022/09/05 09:21:22;;;;;;;11.93;3.70;;;24.70;99.90;;;;;;4152004;28;20270;-74
2022/09/05 09:23:46;;;;;;;4.65;2.95;;;24.80;99.90;;;;;;4160798;28;20242;-76
2022/09/05 09:25:59;;;;;;;3.10;2.25;;;24.90;99.90;;;;;;4156535;28;20282;-77
2022/09/05 09:28:31;;;;;;;6.15;2.67;;;24.90;99.90;;;;;;4162254;28;20314;-76
2022/09/05 09:30:35;;;;;;;7.88;2.58;;;24.90;99.90;;;;;;4160832;28;20216;-75
2022/09/05 09:32:44;;;;;;;6.18;2.88;;;24.90;99.90;;;;;;4159099;28;20270;-74
2022/09/05 09:34:52;;;;;;;4.13;2.13;;;24.90;99.90;;;;;;4158426;28;20270;-75
2022/09/05 09:37:27;;;;;;;5.00;2.50;;;24.90;99.90;;;;;;4150966;28;21214;-76
2022/09/05 09:39:41;;;;;;;3.38;2.40;;;24.90;99.90;;;;;;4155968;28;20297;-75
2022/09/05 09:41:58;;;;;;;5.53;2.55;;;25.00;99.90;;;;;;4154179;28;22303;-76
2022/09/05 09:44:57;;;;;;;5.95;2.70;;;24.90;99.90;;;;;;4156086;28;20280;-77
2022/09/05 09:46:59;;;;;;;5.15;2.15;;;24.90;99.90;;;;;;4157726;28;20293;-77
2022/09/05 09:49:17;;;;;;;5.07;2.30;;;24.90;99.90;;;;;;4159649;28;20271;-78
2022/09/05 09:51:31;;;;;;;7.63;3.00;;;25.10;99.90;;;;;;4155041;28;20223;-77
2022/09/05 09:53:50;;;;;;;4.75;2.55;;;25.10;99.90;;;;;;4160709;28;20273;-77
2022/09/05 09:56:21;;;;;;;7.70;2.70;;;25.10;99.90;;;;;;4157449;28;20242;-79
2022/09/05 09:58:46;;;;;;;4.55;2.50;;;25.00;99.90;;;;;;4156804;28;20274;-78
2022/09/05 10:00:54;;;;;;;8.30;2.53;;;25.10;99.90;;;;;;4161593;28;20232;-80
2022/09/05 10:03:23;;;;;;;4.95;2.40;;;25.10;99.90;;;;;;4157235;28;20224;-78
2022/09/05 10:05:43;;;;;;;3.78;2.47;;;25.20;99.90;;;;;;4152651;28;20301;-85
2022/09/05 10:08:08;;;;;;;4.55;2.35;;;25.20;99.90;;;;;;4157469;28;20685;-83
2022/09/05 10:10:43;;;;;;;4.18;2.25;;;25.30;99.90;;;;;;4157461;28;20271;-84
2022/09/05 10:13:20;;;;;;;4.00;2.03;;;25.40;99.90;;;;;;4160627;28;20270;-81
2022/09/05 10:15:29;;;;;;;4.32;1.90;;;25.40;99.90;;;;;;4154333;28;20255;-78
2022/09/05 10:17:54;;;;;;;6.68;2.40;;;25.50;99.90;;;;;;4158314;28;20220;-78
2022/09/05 10:20:21;;;;;;;3.75;2.00;;;25.60;99.90;;;;;;4157648;28;20240;-81
2022/09/05 10:22:48;;;;;;;4.25;1.95;;;25.70;99.90;;;;;;4160484;28;20282;-79
2022/09/05 10:25:12;;;;;;;5.13;2.15;;;25.70;99.90;;;;;;4156569;28;20208;-79
2022/09/05 10:27:47;;;;;;;5.15;2.00;;;25.60;99.90;;;;;;4157175;28;20231;-80
2022/09/05 10:30:09;;;;;;;6.03;2.00;;;25.60;99.90;;;;;;4157357;28;20216;-84
2022/09/05 10:32:21;;;;;;;2.55;1.95;;;25.60;99.90;;;;;;4158160;28;20654;-79
2022/09/05 10:34:25;;;;;;;5.95;2.30;;;25.60;99.90;;;;;;4160678;28;20224;-76
2022/09/05 10:36:30;;;;;;;4.38;2.25;;;25.60;99.90;;;;;;4158092;28;20216;-77
2022/09/05 10:38:39;;;;;;;6.30;2.20;;;25.60;99.90;;;;;;4162438;28;20273;-77
2022/09/05 10:40:45;;;;;;;3.13;2.13;;;25.60;99.90;;;;;;4157694;28;20240;-78
2022/09/05 10:42:50;;;;;;;4.00;1.92;;;25.70;99.90;;;;;;4156573;28;20743;-76
2022/09/05 10:44:54;;;;;;;5.47;2.38;;;25.70;99.90;;;;;;4155618;28;20221;-78
2022/09/05 10:47:09;;;;;;;6.05;2.45;;;25.80;99.90;;;;;;4156728;28;20220;-78
2022/09/05 10:49:15;;;;;;;6.05;2.53;;;25.80;99.90;;;;;;4157418;28;20624;-77
2022/09/05 10:51:21;;;;;;;6.20;2.50;;;25.90;99.90;;;;;;4160493;28;20266;-79
2022/09/05 10:53:53;;;;;;;8.60;2.83;;;25.90;99.90;;;;;;4163133;28;20262;-78
2022/09/05 10:56:08;;;;;;;9.35;2.83;;;25.90;99.90;;;;;;4160481;28;20212;-77
2022/09/05 10:58:40;;;;;;;6.22;2.40;;;26.20;99.90;;;;;;4159992;28;20549;-76
2022/09/05 11:01:00;;;;;;;4.97;2.10;;;26.20;99.90;;;;;;4157626;28;20883;-77
2022/09/05 11:03:03;;;;;;;4.60;2.30;;;26.00;99.90;;;;;;4160869;28;20224;-77
2022/09/05 11:05:16;;;;;;;6.38;2.17;;;25.90;99.90;;;;;;4155477;28;20212;-76
2022/09/05 11:07:21;;;;;;;4.30;2.33;;;26.20;99.90;;;;;;4157238;28;20216;-78
2022/09/05 11:09:31;;;;;;;7.95;2.50;;;26.10;99.90;;;;;;4157614;28;20332;-76
2022/09/05 11:11:44;;;;;;;8.60;2.50;;;26.10;99.90;;;;;;4159948;28;20272;-75
2022/09/05 11:13:49;;;;;;;4.30;2.42;;;26.00;99.90;;;;;;4155679;28;20262;-75
2022/09/05 11:16:11;;;;;;;4.40;2.17;;;26.00;99.90;;;;;;4160196;28;21031;-75
2022/09/05 11:18:22;;;;;;;3.50;2.33;;;25.90;99.90;;;;;;4156532;28;20224;-75
2022/09/05 11:20:44;;;;;;;2.80;2.17;;;25.90;99.90;;;;;;4159586;28;20282;-75
2022/09/05 11:22:49;;;;;;;6.82;2.20;;;25.90;99.90;;;;;;4157585;28;20213;-76
2022/09/05 11:24:54;;;;;;;3.72;2.17;;;26.00;99.90;;;;;;4156601;28;20722;-76
2022/09/05 11:27:08;;;;;;;8.25;2.40;;;26.00;99.90;;;;;;4155137;28;20531;-76
2022/09/05 11:29:16;;;;;;;4.25;2.10;;;26.10;99.90;;;;;;4156370;28;20236;-75
2022/09/05 11:31:23;;;;;;;4.32;2.20;;;26.10;99.90;;;;;;4156968;28;20220;-76
2022/09/05 11:33:54;;;;;;;3.53;2.28;;;26.10;99.90;;;;;;4160281;28;20217;-76
2022/09/05 11:36:01;;;;;;;4.70;2.10;;;26.00;99.90;;;;;;4147053;28;20217;-76
2022/09/05 11:38:35;;;;;;;4.65;2.00;;;26.00;99.90;;;;;;4160470;28;20219;-76
2022/09/05 11:40:49;;;;;;;2.78;1.52;;;26.00;99.90;;;;;;4160358;28;20652;-76
2022/09/05 11:43:20;;;;;;;2.90;1.90;;;26.10;99.80;;;;;;4157567;28;20255;-76
2022/09/05 11:46:10;;;;;;;6.22;2.60;;;26.10;99.70;;;;;;4147763;28;20220;-76
2022/09/05 11:48:50;;;;;;;5.78;2.72;;;26.20;99.90;;;;;;4159144;28;20212;-76
2022/09/05 11:51:42;;;;;;;7.72;2.88;;;26.10;99.80;;;;;;4156131;28;20216;-75